createdAt,value
2018-12-05T00:00:40.289Z,101636.06
2018-12-05T00:03:10.676Z,101638.31
2018-12-05T00:05:39.753Z,101627.44
2018-12-05T00:08:14.865Z,101628.73
2018-12-05T00:10:43.849Z,101636.14
2018-12-05T00:13:14.898Z,101630.41
2018-12-05T00:15:44.256Z,101629.45
2018-12-05T00:18:13.183Z,101622.85
2018-12-05T00:20:42.116Z,101621.14
2018-12-05T00:23:12.861Z,101624.19
2018-12-05T00:25:41.747Z,101632.50
2018-12-05T00:28:10.692Z,101631.62
2018-12-05T00:30:40.049Z,101639.50
2018-12-05T00:33:09.028Z,101634.59
2018-12-05T00:35:40.067Z,101642.00
2018-12-05T00:38:10.310Z,101634.64
2018-12-05T00:40:39.286Z,101646.83
2018-12-05T00:43:23.226Z,101647.30
2018-12-05T00:45:53.536Z,101656.87
2018-12-05T00:48:22.387Z,101658.11
2018-12-05T00:50:54.159Z,101657.16
2018-12-05T00:53:23.574Z,101660.72
2018-12-05T00:55:52.390Z,101657.23
2018-12-05T00:58:28.821Z,101655.53
2018-12-05T01:00:58.547Z,101658.98
2018-12-05T01:03:30.521Z,101657.27
2018-12-05T01:05:59.515Z,101660.32
2018-12-05T01:08:28.761Z,101658.11
2018-12-05T01:11:02.902Z,101647.66
2018-12-05T01:13:31.771Z,101636.78
2018-12-05T01:16:12.288Z,101628.55
2018-12-05T01:18:41.185Z,101618.10
2018-12-05T01:21:10.113Z,101604.72
2018-12-05T01:23:39.356Z,101609.98
2018-12-05T01:26:08.267Z,101612.13
2018-12-05T01:28:37.255Z,101614.81
2018-12-05T01:31:14.008Z,101614.02
2018-12-05T01:33:42.951Z,101612.79
2018-12-05T01:36:22.743Z,101611.09
2018-12-05T01:38:58.862Z,101624.17
2018-12-05T01:41:28.176Z,101631.17
2018-12-05T01:43:57.811Z,101636.50
2018-12-05T01:46:26.736Z,101637.01
2018-12-05T01:49:03.205Z,101636.58
2018-12-05T01:51:32.289Z,101641.00
2018-12-05T01:54:02.188Z,101634.73
2018-12-05T01:56:32.927Z,101640.92
2018-12-05T01:59:02.000Z,101649.63
2018-12-05T02:01:32.688Z,101639.59
2018-12-05T02:04:02.854Z,101626.14
2018-12-05T02:06:31.786Z,101612.58
2018-12-05T02:09:00.710Z,101600.98
2018-12-05T02:11:31.669Z,101604.45
2018-12-05T02:14:00.575Z,101604.97
2018-12-05T02:16:29.500Z,101610.69
2018-12-05T02:18:58.852Z,101612.43
2018-12-05T02:21:27.762Z,101613.66
2018-12-05T02:26:32.141Z,101610.36
2018-12-05T02:29:04.063Z,101602.56
2018-12-05T02:31:32.936Z,101600.43
2018-12-05T02:34:06.510Z,101598.29
2018-12-05T02:36:35.585Z,101600.09
2018-12-05T02:39:06.434Z,101597.55
2018-12-05T02:41:35.412Z,101596.69
2018-12-05T02:44:08.382Z,101595.92
2018-12-05T02:46:37.340Z,101597.69
2018-12-05T02:49:11.085Z,101598.59
2018-12-05T02:51:39.983Z,101597.73
2018-12-05T02:54:08.855Z,101608.19
2018-12-05T02:56:37.794Z,101612.97
2018-12-05T02:59:07.154Z,101621.16
2018-12-05T03:01:41.200Z,101618.59
2018-12-05T03:06:44.203Z,101625.95
2018-12-05T03:09:13.151Z,101615.95
2018-12-05T03:11:42.544Z,101613.37
2018-12-05T03:14:11.750Z,101616.45
2018-12-05T03:16:40.690Z,101605.62
2018-12-05T03:19:14.202Z,101602.20
2018-12-05T03:21:42.990Z,101603.94
2018-12-05T03:24:11.811Z,101605.75
2018-12-05T03:29:20.511Z,101590.53
2018-12-05T03:31:49.639Z,101586.66
2018-12-05T03:34:18.431Z,101594.94
2018-12-05T03:36:47.199Z,101585.78
2018-12-05T03:39:16.415Z,101574.11
2018-12-05T03:41:45.203Z,101577.19
2018-12-05T03:44:13.991Z,101569.83
2018-12-05T03:46:46.564Z,101557.27
2018-12-05T03:49:15.587Z,101560.74
2018-12-05T03:51:44.506Z,101563.84
2018-12-05T03:54:13.608Z,101562.17
2018-12-05T03:56:42.384Z,101562.64
2018-12-05T03:59:12.095Z,101566.11
2018-12-05T04:01:41.376Z,101565.21
2018-12-05T04:06:50.014Z,101564.31
2018-12-05T04:09:18.823Z,101564.28
2018-12-05T04:11:47.647Z,101565.59
2018-12-05T04:14:16.886Z,101567.72
2018-12-05T04:16:46.685Z,101558.60
2018-12-05T04:19:15.556Z,101559.44
2018-12-05T04:21:44.697Z,101560.34
2018-12-05T04:24:13.511Z,101562.48
2018-12-05T04:26:43.684Z,101567.23
2018-12-05T04:29:12.883Z,101562.02
2018-12-05T04:31:41.695Z,101574.58
2018-12-05T04:34:10.500Z,101569.40
2018-12-05T04:36:39.799Z,101568.44
2018-12-05T04:39:11.549Z,101565.39
2018-12-05T04:41:40.512Z,101563.31
2018-12-05T04:44:14.537Z,101561.14
2018-12-05T04:46:43.364Z,101563.31
2018-12-05T04:49:12.202Z,101565.48
2018-12-05T04:51:41.261Z,101569.80
2018-12-05T04:54:11.118Z,101581.47
2018-12-05T04:56:39.916Z,101577.19
2018-12-05T04:59:09.089Z,101575.52
2018-12-05T05:01:37.892Z,101580.66
2018-12-05T05:04:06.670Z,101590.69
2018-12-05T05:06:41.548Z,101596.41
2018-12-05T05:09:08.172Z,101595.53
2018-12-05T05:11:37.915Z,101596.90
2018-12-05T05:14:07.198Z,101599.53
2018-12-05T05:16:39.150Z,101598.67
2018-12-05T05:21:53.867Z,101613.00
2018-12-05T05:24:23.138Z,101608.48
2018-12-05T05:26:51.975Z,101605.02
2018-12-05T05:29:20.818Z,101600.75
2018-12-05T05:31:49.787Z,101602.05
2018-12-05T05:34:18.629Z,101600.38
2018-12-05T05:36:47.448Z,101605.04
2018-12-05T05:39:16.604Z,101596.70
2018-12-05T05:41:46.144Z,101602.78
2018-12-05T05:44:15.052Z,101608.89
2018-12-05T05:46:44.199Z,101606.26
2018-12-05T05:49:13.023Z,101606.28
2018-12-05T05:51:41.823Z,101606.81
2018-12-05T05:54:10.957Z,101609.30
2018-12-05T05:56:39.789Z,101608.38
2018-12-05T05:59:14.082Z,101601.05
2018-12-05T06:01:42.912Z,101601.91
2018-12-05T06:04:13.247Z,101604.98
2018-12-05T06:06:42.402Z,101611.53
2018-12-05T06:09:16.983Z,101615.90
2018-12-05T06:11:45.823Z,101615.90
2018-12-05T06:14:29.418Z,101608.52
2018-12-05T06:17:04.746Z,101608.45
2018-12-05T06:19:33.695Z,101610.22
2018-12-05T06:22:04.301Z,101607.21
2018-12-05T06:24:39.372Z,101615.48
2018-12-05T06:27:08.205Z,101612.05
2018-12-05T06:29:41.007Z,101613.78
2018-12-05T06:32:10.314Z,101623.25
2018-12-05T06:34:39.145Z,101624.91
2018-12-05T06:37:08.650Z,101625.72
2018-12-05T06:39:38.664Z,101626.56
2018-12-05T06:42:07.529Z,101618.27
2018-12-05T06:44:42.978Z,101609.59
2018-12-05T06:47:12.133Z,101596.89
2018-12-05T06:49:41.105Z,101588.27
2018-12-05T06:52:10.039Z,101590.47
2018-12-05T06:54:44.296Z,101586.19
2018-12-05T06:57:13.199Z,101583.05
2018-12-05T06:59:45.714Z,101582.28
2018-12-05T07:02:14.706Z,101597.05
2018-12-05T07:04:46.530Z,101589.63
2018-12-05T07:07:15.662Z,101593.52
2018-12-05T07:09:44.983Z,101587.37
2018-12-05T07:12:13.787Z,101604.75
2018-12-05T07:14:47.808Z,101605.12
2018-12-05T07:17:16.635Z,101602.45
2018-12-05T07:19:45.487Z,101606.36
2018-12-05T07:22:14.724Z,101601.55
2018-12-05T07:24:43.617Z,101598.11
2018-12-05T07:27:12.461Z,101600.28
2018-12-05T07:29:42.597Z,101597.67
2018-12-05T07:32:11.470Z,101595.87
2018-12-05T07:34:40.378Z,101601.02
2018-12-05T07:37:09.515Z,101599.23
2018-12-05T07:39:38.358Z,101604.38
2018-12-05T07:42:07.279Z,101604.31
2018-12-05T07:44:36.443Z,101616.85
2018-12-05T07:47:05.287Z,101623.34
2018-12-05T07:49:34.127Z,101620.30
2018-12-05T07:52:04.012Z,101612.44
2018-12-05T07:54:32.872Z,101622.47
2018-12-05T07:57:01.949Z,101634.20
2018-12-05T07:59:31.075Z,101635.95
2018-12-05T08:02:09.507Z,101632.47
2018-12-05T08:04:38.414Z,101628.12
2018-12-05T08:07:08.165Z,101623.34
2018-12-05T08:09:36.942Z,101620.70
2018-12-05T08:12:06.895Z,101618.49
2018-12-05T08:15:38.015Z,101620.16
2018-12-05T08:18:07.203Z,101615.31
2018-12-05T08:20:49.180Z,101611.80
2018-12-05T08:23:18.490Z,101616.59
2018-12-05T08:25:49.274Z,101616.92
2018-12-05T08:28:18.137Z,101612.47
2018-12-05T08:30:47.436Z,101613.19
2018-12-05T08:33:16.251Z,101604.06
2018-12-05T08:35:45.138Z,101606.30
2018-12-05T08:38:14.607Z,101601.88
2018-12-05T08:40:43.541Z,101601.12
2018-12-05T08:43:15.733Z,101615.84
2018-12-05T08:45:44.593Z,101622.22
2018-12-05T08:48:16.946Z,101627.33
2018-12-05T08:50:45.870Z,101624.28
2018-12-05T08:53:14.857Z,101616.38
2018-12-05T08:55:43.926Z,101617.14
2018-12-05T08:58:12.778Z,101610.17
2018-12-05T09:00:41.931Z,101613.66
2018-12-05T09:03:11.122Z,101622.44
2018-12-05T09:05:44.609Z,101627.19
2018-12-05T09:08:13.489Z,101618.84
2018-12-05T09:10:47.659Z,101621.73
2018-12-05T09:13:16.514Z,101616.39
2018-12-05T09:15:46.444Z,101619.29
2018-12-05T09:18:15.583Z,101616.59
2018-12-05T09:20:44.459Z,101623.48
2018-12-05T09:23:13.267Z,101621.34
2018-12-05T09:25:42.474Z,101626.20
2018-12-05T09:28:11.298Z,101635.27
2018-12-05T09:30:40.173Z,101639.15
2018-12-05T09:33:09.336Z,101633.45
2018-12-05T09:35:48.157Z,101627.67
2018-12-05T09:38:17.176Z,101624.11
2018-12-05T09:40:46.020Z,101616.96
2018-12-05T09:43:14.888Z,101608.86
2018-12-05T09:45:44.080Z,101610.34
2018-12-05T09:48:12.885Z,101606.00
2018-12-05T09:50:41.760Z,101600.97
2018-12-05T09:53:11.518Z,101584.60
2018-12-05T09:55:40.829Z,101583.47
2018-12-05T09:58:09.661Z,101576.73
2018-12-05T10:00:39.898Z,101576.31
2018-12-05T10:03:10.607Z,101568.50
2018-12-05T10:05:39.481Z,101573.63
2018-12-05T10:08:08.889Z,101564.42
2018-12-05T10:10:37.685Z,101559.91
2018-12-05T10:13:08.229Z,101557.24
2018-12-05T10:15:37.446Z,101554.12
2018-12-05T10:18:06.315Z,101546.93
2018-12-05T10:20:35.160Z,101548.52
2018-12-05T10:23:08.102Z,101552.28
2018-12-05T10:25:37.214Z,101551.28
2018-12-05T10:28:11.327Z,101546.39
2018-12-05T10:30:40.608Z,101531.36
2018-12-05T10:33:09.495Z,101534.03
2018-12-05T10:35:38.283Z,101525.05
2018-12-05T10:38:07.422Z,101525.69
2018-12-05T10:40:36.323Z,101522.24
2018-12-05T10:43:05.207Z,101510.84
2018-12-05T10:45:34.381Z,101515.36
2018-12-05T10:48:04.490Z,101521.63
2018-12-05T10:50:42.070Z,101513.96
2018-12-05T10:53:11.350Z,101514.22
2018-12-05T10:55:40.296Z,101518.52
2018-12-05T10:58:09.176Z,101520.88
2018-12-05T11:00:43.523Z,101505.97
2018-12-05T11:03:21.578Z,101504.30
2018-12-05T11:05:55.701Z,101499.34
2018-12-05T11:08:29.565Z,101498.91
2018-12-05T11:11:05.203Z,101501.80
2018-12-05T11:13:39.131Z,101491.89
2018-12-05T11:16:13.389Z,101491.23
2018-12-05T11:23:03.542Z,101497.19
2018-12-05T11:25:32.699Z,101486.43
2018-12-05T11:28:03.077Z,101489.08
2018-12-05T11:30:34.061Z,101491.84
2018-12-05T11:33:02.937Z,101493.23
2018-12-05T11:35:33.845Z,101491.79
2018-12-05T11:38:04.177Z,101485.69
2018-12-05T11:40:33.134Z,101485.58
2018-12-05T11:43:02.390Z,101479.11
2018-12-05T11:45:31.745Z,101478.53
2018-12-05T11:48:00.764Z,101462.95
2018-12-05T11:50:30.323Z,101449.08
2018-12-05T11:52:59.518Z,101449.08
2018-12-05T11:55:28.433Z,101436.34
2018-12-05T11:57:57.442Z,101433.46
2018-12-05T12:00:26.726Z,101430.13
2018-12-05T12:02:55.820Z,101425.85
2018-12-05T12:05:26.482Z,101416.33
2018-12-05T12:07:55.755Z,101415.43
2018-12-05T12:10:28.981Z,101410.81
2018-12-05T12:13:05.696Z,101406.05
2018-12-05T12:15:34.983Z,101396.49
2018-12-05T12:18:04.818Z,101401.42
2018-12-05T12:20:33.876Z,101401.88
2018-12-05T12:23:03.967Z,101399.98
2018-12-05T12:25:33.223Z,101397.39
2018-12-05T12:28:05.077Z,101391.96
2018-12-05T12:30:35.351Z,101380.20
2018-12-05T12:33:04.642Z,101376.57
2018-12-05T12:35:37.420Z,101367.88
2018-12-05T12:38:07.958Z,101364.25
2018-12-05T12:40:38.356Z,101370.84
2018-12-05T12:43:07.262Z,101368.50
2018-12-05T12:45:36.613Z,101375.27
2018-12-05T12:50:36.570Z,101359.53
2018-12-05T12:53:08.080Z,101350.41
2018-12-05T12:55:36.965Z,101346.21
2018-12-05T12:58:07.725Z,101344.95
2018-12-05T13:00:37.067Z,101333.84
2018-12-05T13:03:05.964Z,101335.31
2018-12-05T13:05:34.963Z,101335.41
2018-12-05T13:08:06.674Z,101334.45
2018-12-05T13:10:35.585Z,101328.50
2018-12-05T13:13:04.516Z,101317.20
2018-12-05T13:15:33.688Z,101317.39
2018-12-05T13:18:08.093Z,101312.36
2018-12-05T13:20:37.003Z,101306.59
2018-12-05T13:23:05.849Z,101307.21
2018-12-05T13:25:34.875Z,101296.84
2018-12-05T13:28:05.045Z,101289.83
2018-12-05T13:30:34.085Z,101288.80
2018-12-05T13:33:03.258Z,101286.53
2018-12-05T13:35:32.562Z,101284.69
2018-12-05T13:38:03.294Z,101284.38
2018-12-05T13:40:32.245Z,101284.66
2018-12-05T13:43:01.734Z,101279.72
2018-12-05T13:45:30.806Z,101279.02
2018-12-05T13:47:59.633Z,101283.98
2018-12-05T13:50:28.891Z,101279.08
2018-12-05T13:52:57.867Z,101276.64
2018-12-05T13:55:30.293Z,101272.94
2018-12-05T13:57:59.423Z,101266.02
2018-12-05T14:00:28.280Z,101268.06
2018-12-05T14:02:57.121Z,101264.59
2018-12-05T14:05:26.405Z,101261.57
2018-12-05T14:07:55.269Z,101258.31
2018-12-05T14:10:30.421Z,101254.67
2018-12-05T14:13:00.764Z,101249.94
2018-12-05T14:15:29.897Z,101247.76
2018-12-05T14:18:01.723Z,101247.57
2018-12-05T14:20:29.979Z,101245.97
2018-12-05T14:22:58.787Z,101240.59
2018-12-05T14:25:27.600Z,101241.97
2018-12-05T14:28:04.192Z,101239.80
2018-12-05T14:30:33.119Z,101233.98
2018-12-05T14:33:02.170Z,101233.14
2018-12-05T14:35:35.043Z,101229.52
2018-12-05T14:38:05.949Z,101233.11
2018-12-05T14:40:34.941Z,101220.92
2018-12-05T14:43:04.103Z,101222.61
2018-12-05T14:45:40.227Z,101219.19
2018-12-05T14:48:15.678Z,101217.08
2018-12-05T14:50:44.718Z,101211.09
2018-12-05T14:53:13.527Z,101219.56
2018-12-05T14:55:42.724Z,101210.84
2018-12-05T14:58:11.720Z,101209.14
2018-12-05T15:00:40.514Z,101206.61
2018-12-05T15:03:09.631Z,101202.68
2018-12-05T15:05:38.379Z,101198.39
2018-12-05T15:08:07.298Z,101200.69
2018-12-05T15:10:36.416Z,101201.52
2018-12-05T15:13:05.336Z,101198.45
2018-12-05T15:15:34.325Z,101193.72
2018-12-05T15:18:04.500Z,101195.48
2018-12-05T15:20:33.621Z,101202.16
2018-12-05T15:23:02.672Z,101193.55
2018-12-05T15:25:38.478Z,101206.23
2018-12-05T15:28:07.249Z,101195.81
2018-12-05T15:30:38.308Z,101191.08
2018-12-05T15:33:07.483Z,101185.84
2018-12-05T15:35:42.318Z,101193.80
2018-12-05T15:38:11.219Z,101192.48
2018-12-05T15:40:40.158Z,101187.36
2018-12-05T15:43:12.050Z,101186.86
2018-12-05T15:45:41.244Z,101187.78
2018-12-05T15:48:10.125Z,101190.28
2018-12-05T15:50:39.013Z,101184.66
2018-12-05T15:53:08.241Z,101181.61
2018-12-05T15:55:37.133Z,101182.89
2018-12-05T15:58:11.013Z,101177.81
2018-12-05T16:00:40.210Z,101173.52
2018-12-05T16:03:13.040Z,101168.64
2018-12-05T16:05:41.955Z,101172.63
2018-12-05T16:08:11.119Z,101164.35
2018-12-05T16:10:39.953Z,101161.31
2018-12-05T16:13:08.829Z,101161.88
2018-12-05T16:15:38.076Z,101167.56
2018-12-05T16:18:06.924Z,101161.95
2018-12-05T16:20:41.914Z,101161.95
2018-12-05T16:23:10.745Z,101150.54
2018-12-05T16:25:39.620Z,101142.36
2018-12-05T16:28:08.889Z,101140.62
2018-12-05T16:30:37.966Z,101135.00
2018-12-05T16:33:06.793Z,101139.32
2018-12-05T16:35:39.704Z,101138.42
2018-12-05T16:38:08.568Z,101132.83
2018-12-05T16:40:37.442Z,101122.23
2018-12-05T16:45:46.041Z,101122.15
2018-12-05T16:48:18.140Z,101117.71
2018-12-05T16:50:47.310Z,101118.52
2018-12-05T16:53:17.806Z,101118.22
2018-12-05T16:55:46.937Z,101113.43
2018-12-05T16:58:15.975Z,101112.18
2018-12-05T17:03:28.576Z,101104.32
2018-12-05T17:05:57.529Z,101097.55
2018-12-05T17:08:26.528Z,101097.19
2018-12-05T17:11:00.196Z,101086.42
2018-12-05T17:13:29.078Z,101088.23
2018-12-05T17:15:58.456Z,101082.26
2018-12-05T17:18:28.231Z,101081.48
2018-12-05T17:20:57.213Z,101075.86
2018-12-05T17:23:26.103Z,101067.08
2018-12-05T17:25:59.076Z,101065.39
2018-12-05T17:28:28.242Z,101064.17
2018-12-05T17:30:57.670Z,101055.00
2018-12-05T17:33:31.479Z,101049.27
2018-12-05T17:36:06.515Z,101043.20
2018-12-05T17:38:53.325Z,101037.95
2018-12-05T17:41:27.853Z,101034.22
2018-12-05T17:44:05.265Z,101034.69
2018-12-05T17:47:04.481Z,101038.11
2018-12-05T17:49:44.141Z,101037.69
2018-12-05T17:52:26.884Z,101038.05
2018-12-05T17:55:05.976Z,101035.78
2018-12-05T17:57:51.272Z,101037.76
2018-12-05T18:00:35.978Z,101047.42
2018-12-05T18:03:32.217Z,101047.81
2018-12-05T18:06:11.832Z,101050.63
2018-12-05T18:08:41.345Z,101045.61
2018-12-05T18:11:11.121Z,101035.52
2018-12-05T18:13:40.761Z,101036.89
2018-12-05T18:16:13.528Z,101021.62
2018-12-05T18:18:42.913Z,101022.91
2018-12-05T18:21:12.404Z,101020.23
2018-12-05T18:23:41.903Z,101022.28
2018-12-05T18:26:11.405Z,101018.80
2018-12-05T18:28:40.851Z,101015.44
2018-12-05T18:31:10.833Z,101015.35
2018-12-05T18:33:40.264Z,101016.69
2018-12-05T18:38:45.215Z,101014.98
2018-12-05T18:41:15.399Z,101003.44
2018-12-05T18:45:17.614Z,100989.70
2018-12-05T18:47:47.165Z,100973.42
2018-12-05T18:52:57.426Z,100945.58
2018-12-05T18:55:26.992Z,100937.48
2018-12-05T18:57:56.692Z,100960.23
2018-12-05T19:00:29.657Z,100966.65
2018-12-05T19:02:59.151Z,100971.47
2018-12-05T19:05:28.781Z,100970.16
2018-12-05T19:07:58.632Z,100955.31
2018-12-05T19:10:28.180Z,100951.68
2018-12-05T19:12:58.805Z,100955.22
2018-12-05T19:15:28.825Z,100948.77
2018-12-05T19:17:58.380Z,100947.53
2018-12-05T19:20:28.643Z,100929.30
2018-12-05T19:22:58.196Z,100924.99
2018-12-05T19:25:27.751Z,100920.65
2018-12-05T19:27:57.628Z,100928.12
2018-12-05T19:30:27.349Z,100927.99
2018-12-05T19:32:56.861Z,100927.99
2018-12-05T19:35:26.401Z,100926.14
2018-12-05T19:37:55.925Z,100922.50
2018-12-05T19:40:26.041Z,100924.10
2018-12-05T19:42:55.544Z,100922.02
2018-12-05T19:45:25.286Z,100925.95
2018-12-05T19:48:00.036Z,100916.56
2018-12-05T19:50:29.622Z,100903.19
2018-12-05T19:52:59.221Z,100910.81
2018-12-05T19:55:28.780Z,100913.81
2018-12-05T19:57:58.431Z,100914.39
2018-12-05T20:00:28.487Z,100913.22
2018-12-05T20:02:58.011Z,100920.93
2018-12-05T20:05:27.516Z,100916.44
2018-12-05T20:07:57.591Z,100903.00
2018-12-05T20:10:27.131Z,100907.11
2018-12-05T20:12:56.647Z,100915.34
2018-12-05T20:15:26.797Z,100909.89
2018-12-05T20:17:56.351Z,100904.36
2018-12-05T20:20:31.452Z,100896.09
2018-12-05T20:23:01.542Z,100896.52
2018-12-05T20:25:31.881Z,100886.27
2018-12-05T20:28:05.805Z,100876.12
2018-12-05T20:30:35.871Z,100869.64
2018-12-05T20:33:05.387Z,100864.32
2018-12-05T20:35:34.918Z,100871.53
2018-12-05T20:38:08.660Z,100878.08
2018-12-05T20:40:38.235Z,100884.03
2018-12-05T20:46:13.112Z,100888.62
2018-12-05T20:48:42.665Z,100885.20
2018-12-05T20:51:12.180Z,100868.78
2018-12-05T20:53:43.875Z,100873.44
2018-12-05T20:56:13.461Z,100887.47
2018-12-05T20:58:45.007Z,100896.23
2018-12-05T21:01:15.074Z,100889.41
2018-12-05T21:03:44.601Z,100890.70
2018-12-05T21:06:14.376Z,100893.05
2018-12-05T21:08:46.202Z,100876.90
2018-12-05T21:11:16.184Z,100872.85
2018-12-05T21:13:45.947Z,100865.16
2018-12-05T21:16:30.303Z,100859.90
2018-12-05T21:18:59.710Z,100866.38
2018-12-05T21:21:30.462Z,100862.91
2018-12-05T21:24:00.312Z,100858.38
2018-12-05T21:26:35.884Z,100863.39
2018-12-05T21:29:05.777Z,100863.61
2018-12-05T21:31:39.193Z,100862.80
2018-12-05T21:34:09.429Z,100858.41
2018-12-05T21:36:38.869Z,100850.75
2018-12-05T21:39:09.720Z,100857.23
2018-12-05T21:41:39.608Z,100860.94
2018-12-05T21:44:12.444Z,100858.58
2018-12-05T21:46:41.890Z,100847.86
2018-12-05T21:49:11.468Z,100852.58
2018-12-05T21:51:40.564Z,100848.11
2018-12-05T21:54:09.563Z,100849.27
2018-12-05T21:56:42.835Z,100846.45
2018-12-05T21:59:11.853Z,100843.01
2018-12-05T22:01:41.153Z,100847.45
2018-12-05T22:04:41.035Z,100849.45
2018-12-05T22:07:09.977Z,100840.27
2018-12-05T22:09:39.306Z,100839.41
2018-12-05T22:12:09.344Z,100833.95
2018-12-05T22:14:38.636Z,100840.30
2018-12-05T22:17:13.066Z,100846.65
2018-12-05T22:19:52.914Z,100840.58
2018-12-05T22:25:04.952Z,100839.53
2018-12-05T22:27:35.211Z,100843.06
2018-12-05T22:30:05.228Z,100835.88
2018-12-05T22:32:34.083Z,100831.22
2018-12-05T22:35:09.762Z,100825.77
2018-12-05T22:37:38.636Z,100825.89
2018-12-05T22:40:08.627Z,100825.24
2018-12-05T22:42:37.742Z,100815.05
2018-12-05T22:45:07.157Z,100813.91
2018-12-05T22:47:35.990Z,100813.48
2018-12-05T22:50:11.218Z,100810.58
2018-12-05T22:52:40.034Z,100810.00
2018-12-05T22:55:09.023Z,100802.46
2018-12-05T22:57:38.276Z,100790.54
2018-12-05T23:00:12.745Z,100796.77
2018-12-05T23:02:41.560Z,100796.50
2018-12-05T23:05:10.743Z,100798.05
2018-12-05T23:07:44.441Z,100789.44
2018-12-05T23:10:13.307Z,100784.06
2018-12-05T23:12:43.139Z,100792.13
2018-12-05T23:15:11.957Z,100784.61
2018-12-05T23:17:40.849Z,100786.95
2018-12-05T23:20:10.224Z,100785.78
2018-12-05T23:22:39.167Z,100786.37
2018-12-05T23:25:08.001Z,100792.81
2018-12-05T23:27:37.300Z,100790.88
2018-12-05T23:30:09.021Z,100781.30
2018-12-05T23:32:37.817Z,100778.00
2018-12-05T23:35:09.403Z,100775.76
2018-12-05T23:37:38.241Z,100770.66
2018-12-05T23:40:08.948Z,100763.19
2018-12-05T23:42:38.209Z,100766.91
2018-12-05T23:45:07.362Z,100767.52
2018-12-05T23:47:36.116Z,100761.53
2018-12-05T23:50:06.851Z,100752.84
2018-12-05T23:52:39.211Z,100754.98
2018-12-05T23:55:07.998Z,100760.52
2018-12-05T23:57:36.789Z,100747.38
